createdAt,value
2022-08-05T00:00:22.263Z,26.40
2022-08-05T00:02:52.501Z,26.50
2022-08-05T00:06:06.702Z,26.40
2022-08-05T00:08:34.974Z,26.30
2022-08-05T00:11:20.347Z,26.20
2022-08-05T00:13:56.191Z,26.30
2022-08-05T00:16:36.121Z,26.20
2022-08-05T00:19:12.481Z,26.20
2022-08-05T00:21:42.548Z,26.20
2022-08-05T00:24:18.871Z,26.20
2022-08-05T00:26:51.918Z,26.10
2022-08-05T00:29:27.599Z,26.20
2022-08-05T00:32:15.408Z,26.10
2022-08-05T00:35:05.124Z,26.00
2022-08-05T00:37:52.675Z,26.20
2022-08-05T00:40:29.041Z,26.10
2022-08-05T00:43:00.294Z,26.10
2022-08-05T00:45:42.877Z,26.00
2022-08-05T00:48:27.590Z,25.90
2022-08-05T00:51:08.792Z,26.10
2022-08-05T00:54:02.791Z,26.00
2022-08-05T00:56:40.704Z,26.00
2022-08-05T00:59:44.447Z,25.90
2022-08-05T01:02:17.024Z,26.00
2022-08-05T01:04:51.359Z,25.80
2022-08-05T01:07:31.895Z,25.80
2022-08-05T01:10:01.454Z,25.80
2022-08-05T01:12:38.812Z,25.80
2022-08-05T01:15:36.105Z,25.80
2022-08-05T01:18:19.911Z,25.70
2022-08-05T01:21:22.851Z,25.70
2022-08-05T01:24:30.229Z,25.70
2022-08-05T01:27:19.188Z,25.70
2022-08-05T01:29:58.742Z,25.70
2022-08-05T01:32:35.326Z,25.70
2022-08-05T01:35:11.654Z,25.70
2022-08-05T01:38:24.694Z,25.60
2022-08-05T01:41:02.772Z,25.40
2022-08-05T01:43:35.325Z,25.40
2022-08-05T01:46:16.356Z,25.50
2022-08-05T01:49:22.681Z,25.40
2022-08-05T01:51:58.859Z,25.40
2022-08-05T01:54:55.418Z,25.40
2022-08-05T01:58:09.942Z,25.40
2022-08-05T02:00:29.904Z,25.40
2022-08-05T02:03:24.025Z,25.50
2022-08-05T02:06:24.037Z,25.30
2022-08-05T02:09:03.373Z,25.40
2022-08-05T02:11:48.120Z,25.20
2022-08-05T02:14:32.013Z,25.30
2022-08-05T02:18:27.625Z,25.20
2022-08-05T02:20:28.194Z,25.30
2022-08-05T02:23:05.947Z,25.20
2022-08-05T02:25:49.743Z,25.20
2022-08-05T02:28:28.833Z,25.20
2022-08-05T02:31:14.469Z,25.10
2022-08-05T02:33:57.165Z,25.10
2022-08-05T02:36:35.238Z,25.10
2022-08-05T02:39:08.838Z,25.10
2022-08-05T02:42:00.419Z,25.10
2022-08-05T02:44:37.062Z,25.00
2022-08-05T02:47:18.336Z,25.00
2022-08-05T02:49:52.785Z,25.00
2022-08-05T02:52:34.276Z,25.00
2022-08-05T02:55:13.006Z,25.00
2022-08-05T02:58:11.015Z,25.00
2022-08-05T03:00:42.252Z,25.00
2022-08-05T03:03:20.816Z,25.00
2022-08-05T03:06:54.361Z,25.00
2022-08-05T03:09:07.840Z,25.00
2022-08-05T03:11:55.184Z,24.90
2022-08-05T03:14:32.834Z,24.90
2022-08-05T03:17:06.138Z,24.90
2022-08-05T03:19:38.059Z,24.90
2022-08-05T03:22:19.060Z,24.80
2022-08-05T03:25:31.630Z,24.80
2022-08-05T03:28:00.200Z,24.90
2022-08-05T03:30:33.840Z,24.80
2022-08-05T03:33:04.188Z,24.80
2022-08-05T03:35:41.181Z,24.70
2022-08-05T03:38:14.338Z,24.80
2022-08-05T03:40:45.316Z,24.70
2022-08-05T03:44:08.123Z,24.80
2022-08-05T03:46:08.076Z,24.80
2022-08-05T03:48:36.799Z,24.70
2022-08-05T03:52:48.778Z,24.70
2022-08-05T03:55:53.093Z,24.70
2022-08-05T03:57:00.055Z,24.70
2022-08-05T03:59:46.500Z,24.70
2022-08-05T04:02:37.604Z,24.80
2022-08-05T04:05:09.837Z,24.70
2022-08-05T04:07:58.129Z,24.70
2022-08-05T04:10:32.103Z,24.70
2022-08-05T04:13:07.691Z,24.60
2022-08-05T04:15:36.695Z,24.50
2022-08-05T04:18:07.299Z,24.50
2022-08-05T04:20:38.402Z,24.60
2022-08-05T04:23:12.378Z,24.60
2022-08-05T04:26:00.526Z,24.50
2022-08-05T04:28:31.840Z,24.60
2022-08-05T04:31:01.075Z,24.60
2022-08-05T04:33:54.438Z,24.70
2022-08-05T04:36:46.488Z,24.60
2022-08-05T04:39:06.102Z,24.60
2022-08-05T04:41:37.901Z,24.50
2022-08-05T04:44:09.477Z,24.60
2022-08-05T04:46:38.773Z,24.60
2022-08-05T04:49:12.151Z,24.60
2022-08-05T04:51:43.959Z,24.70
2022-08-05T04:54:12.433Z,24.60
2022-08-05T04:56:40.706Z,24.60
2022-08-05T04:59:22.461Z,24.70
2022-08-05T05:02:08.031Z,24.70
2022-08-05T05:04:49.914Z,24.70
2022-08-05T05:07:29.236Z,24.80
2022-08-05T05:09:57.831Z,24.80
2022-08-05T05:12:27.324Z,24.80
2022-08-05T05:14:57.558Z,25.00
2022-08-05T05:17:55.546Z,24.90
2022-08-05T05:20:15.086Z,24.90
2022-08-05T05:22:44.138Z,25.00
2022-08-05T05:25:17.087Z,25.00
2022-08-05T05:27:53.543Z,25.10
2022-08-05T05:30:29.485Z,25.10
2022-08-05T05:33:03.726Z,25.00
2022-08-05T05:35:47.681Z,25.20
2022-08-05T05:38:22.666Z,25.20
2022-08-05T05:40:56.155Z,25.20
2022-08-05T05:43:56.325Z,25.30
2022-08-05T05:46:16.021Z,25.50
2022-08-05T05:48:48.392Z,25.40
2022-08-05T05:51:20.768Z,25.40
2022-08-05T05:53:58.324Z,25.60
2022-08-05T05:56:33.047Z,25.60
2022-08-05T05:59:05.326Z,25.40
2022-08-05T06:01:38.947Z,25.60
2022-08-05T06:04:11.716Z,25.70
2022-08-05T06:06:41.658Z,25.60
2022-08-05T06:09:16.990Z,25.70
2022-08-05T06:11:59.903Z,25.70
2022-08-05T06:14:31.109Z,25.70
2022-08-05T06:17:22.475Z,25.70
2022-08-05T06:19:56.533Z,25.70
2022-08-05T06:22:29.590Z,25.80
2022-08-05T06:24:58.343Z,25.70
2022-08-05T06:28:11.107Z,25.80
2022-08-05T06:30:20.909Z,25.70
2022-08-05T06:32:50.946Z,25.70
2022-08-05T06:36:04.052Z,25.70
2022-08-05T06:38:11.759Z,25.40
2022-08-05T06:40:42.174Z,25.70
2022-08-05T06:43:58.762Z,25.70
2022-08-05T06:46:06.909Z,25.60
2022-08-05T06:48:56.763Z,25.50
2022-08-05T06:51:29.794Z,25.80
2022-08-05T06:53:58.941Z,25.80
2022-08-05T06:56:27.205Z,25.80
2022-08-05T06:58:55.298Z,25.90
2022-08-05T07:01:23.535Z,25.90
2022-08-05T07:03:57.041Z,25.90
2022-08-05T07:06:27.743Z,26.00
2022-08-05T07:08:56.503Z,26.10
2022-08-05T07:11:28.604Z,26.10
2022-08-05T07:14:20.569Z,26.10
2022-08-05T07:18:00.088Z,26.20
2022-08-05T07:20:32.576Z,26.30
2022-08-05T07:22:38.391Z,26.30
2022-08-05T07:25:21.935Z,26.30
2022-08-05T07:27:58.585Z,26.30
2022-08-05T07:30:32.494Z,26.30
2022-08-05T07:33:01.466Z,26.30
2022-08-05T07:36:04.201Z,26.30
2022-08-05T07:38:32.412Z,26.30
2022-08-05T07:41:16.690Z,26.30
2022-08-05T07:43:51.527Z,26.30
2022-08-05T07:46:24.475Z,26.30
2022-08-05T07:49:02.385Z,26.30
2022-08-05T07:51:40.594Z,26.30
2022-08-05T07:54:16.769Z,26.30
2022-08-05T07:57:01.507Z,26.30
2022-08-05T07:59:40.151Z,26.40
2022-08-05T08:02:16.286Z,26.20
2022-08-05T08:04:48.220Z,26.30
2022-08-05T08:07:22.863Z,26.20
2022-08-05T08:09:54.896Z,26.10
2022-08-05T08:12:27.454Z,26.00
2022-08-05T08:15:09.714Z,26.10
2022-08-05T08:17:46.276Z,26.10
2022-08-05T08:20:43.221Z,26.10
2022-08-05T08:23:59.863Z,26.10
2022-08-05T08:25:58.996Z,26.20
2022-08-05T08:28:36.808Z,26.10
2022-08-05T08:31:15.121Z,26.20
2022-08-05T08:33:46.941Z,26.10
2022-08-05T08:36:38.967Z,26.20
2022-08-05T08:39:15.219Z,26.20
2022-08-05T08:41:52.230Z,26.20
2022-08-05T08:45:22.401Z,26.30
2022-08-05T08:47:47.048Z,26.20
2022-08-05T08:50:30.710Z,26.20
2022-08-05T08:53:12.008Z,26.20
2022-08-05T08:56:04.146Z,26.20
2022-08-05T08:58:43.098Z,26.00
2022-08-05T09:01:16.311Z,26.30
2022-08-05T09:03:47.442Z,26.00
2022-08-05T09:06:21.406Z,26.30
2022-08-05T09:08:52.283Z,26.30
2022-08-05T09:11:52.686Z,26.30
2022-08-05T09:14:58.769Z,26.30
2022-08-05T09:17:00.998Z,26.40
2022-08-05T09:19:36.710Z,26.40
2022-08-05T09:22:22.889Z,26.40
2022-08-05T09:25:00.546Z,26.50
2022-08-05T09:28:05.961Z,26.40
2022-08-05T09:30:23.785Z,26.40
2022-08-05T09:32:52.964Z,26.40
2022-08-05T09:35:26.435Z,26.40
2022-08-05T09:38:12.119Z,26.40
2022-08-05T09:40:52.721Z,26.40
2022-08-05T09:43:40.932Z,26.50
2022-08-05T09:46:27.941Z,26.50
2022-08-05T09:49:08.283Z,26.50
2022-08-05T09:51:49.525Z,26.60
2022-08-05T09:54:30.466Z,26.60
2022-08-05T09:57:01.258Z,26.70
2022-08-05T09:59:35.208Z,26.80
2022-08-05T10:02:05.348Z,26.70
2022-08-05T10:04:40.891Z,26.80
2022-08-05T10:07:20.281Z,26.80
2022-08-05T10:10:13.952Z,26.80
2022-08-05T10:12:49.667Z,26.90
2022-08-05T10:15:25.785Z,26.90
2022-08-05T10:18:08.665Z,26.90
2022-08-05T10:20:38.569Z,26.90
2022-08-05T10:23:08.952Z,26.90
2022-08-05T10:25:56.411Z,26.90
2022-08-05T10:28:29.314Z,27.00
2022-08-05T10:32:49.433Z,26.90
2022-08-05T10:33:54.043Z,26.90
2022-08-05T10:36:26.103Z,26.90
2022-08-05T10:39:01.575Z,26.80
2022-08-05T10:41:46.545Z,26.90
2022-08-05T10:44:56.307Z,26.90
2022-08-05T10:47:37.375Z,26.90
2022-08-05T10:50:36.625Z,26.90
2022-08-05T10:53:28.961Z,26.90
2022-08-05T10:56:21.240Z,27.00
2022-08-05T11:00:04.282Z,27.00
2022-08-05T11:02:34.665Z,27.10
2022-08-05T11:15:00.904Z,27.30
2022-08-05T11:18:07.391Z,27.30
2022-08-05T11:20:44.005Z,27.40
2022-08-05T11:24:03.405Z,27.40
2022-08-05T11:26:28.996Z,27.40
2022-08-05T11:29:11.532Z,27.40
2022-08-05T11:31:57.570Z,27.50
2022-08-05T11:34:38.734Z,27.50
2022-08-05T11:38:30.747Z,27.60
2022-08-05T11:40:02.753Z,27.60
2022-08-05T11:42:37.939Z,27.60
2022-08-05T11:45:14.275Z,27.60
2022-08-05T11:47:54.796Z,27.70
2022-08-05T11:50:23.013Z,27.70
2022-08-05T11:52:57.983Z,27.80
2022-08-05T11:55:32.105Z,27.90
2022-08-05T11:58:09.240Z,27.90
2022-08-05T12:00:41.157Z,27.90
2022-08-05T12:03:28.610Z,28.10
2022-08-05T12:06:01.788Z,28.10
2022-08-05T12:08:32.895Z,28.20
2022-08-05T12:11:05.989Z,28.30
2022-08-05T12:13:48.585Z,28.40
2022-08-05T12:16:19.974Z,28.40
2022-08-05T12:18:54.318Z,28.50
2022-08-05T12:21:26.639Z,28.40
2022-08-05T12:24:04.531Z,28.50
2022-08-05T12:26:34.066Z,28.50
2022-08-05T12:29:03.353Z,28.50
2022-08-05T12:31:46.046Z,28.50
2022-08-05T12:34:23.488Z,28.60
2022-08-05T12:36:55.809Z,28.50
2022-08-05T12:39:44.110Z,28.50
2022-08-05T12:42:19.871Z,28.50
2022-08-05T12:44:49.136Z,28.50
2022-08-05T12:47:37.287Z,28.50
2022-08-05T12:50:44.134Z,28.40
2022-08-05T12:53:36.835Z,28.60
2022-08-05T12:57:23.265Z,28.70
2022-08-05T13:02:00.489Z,28.70
2022-08-05T13:03:09.792Z,28.80
2022-08-05T13:15:51.208Z,28.90
2022-08-05T13:18:25.169Z,29.10
2022-08-05T13:20:55.194Z,29.20
2022-08-05T13:23:23.787Z,29.40
2022-08-05T13:25:59.468Z,29.50
2022-08-05T13:28:32.072Z,29.50
2022-08-05T13:31:03.390Z,29.50
2022-08-05T13:34:21.583Z,29.60
2022-08-05T13:36:30.395Z,29.70
2022-08-05T13:38:58.501Z,29.70
2022-08-05T13:41:37.524Z,29.70
2022-08-05T13:44:06.134Z,29.70
2022-08-05T13:46:37.669Z,29.60
2022-08-05T13:49:12.773Z,29.60
2022-08-05T13:51:45.860Z,29.70
2022-08-05T13:54:16.150Z,29.90
2022-08-05T13:56:50.889Z,30.00
2022-08-05T13:59:21.081Z,30.20
2022-08-05T14:01:58.383Z,30.40
2022-08-05T14:04:49.459Z,30.50
2022-08-05T14:07:56.392Z,30.70
2022-08-05T14:10:11.214Z,30.90
2022-08-05T14:12:39.368Z,31.00
2022-08-05T14:16:07.450Z,32.20
2022-08-05T14:18:01.307Z,34.40
2022-08-05T14:20:30.576Z,36.50
2022-08-05T14:22:58.492Z,37.90
2022-08-05T14:25:27.980Z,38.90
2022-08-05T14:27:56.311Z,39.50
2022-08-05T14:30:28.150Z,39.70
2022-08-05T14:32:56.705Z,39.70
2022-08-05T14:35:37.130Z,39.70
2022-08-05T14:38:31.808Z,39.70
2022-08-05T14:41:05.957Z,39.50
2022-08-05T14:43:59.355Z,39.40
2022-08-05T14:46:28.874Z,39.40
2022-08-05T14:49:06.249Z,39.30
2022-08-05T14:51:37.395Z,39.20
2022-08-05T14:54:26.450Z,39.00
2022-08-05T14:56:54.889Z,38.80
2022-08-05T14:59:22.987Z,38.90
2022-08-05T15:01:50.984Z,38.90
2022-08-05T15:04:20.574Z,39.00
2022-08-05T15:06:51.862Z,39.00
2022-08-05T15:09:50.662Z,39.00
2022-08-05T15:12:09.355Z,39.00
2022-08-05T15:14:48.444Z,39.00
2022-08-05T15:17:46.222Z,38.80
2022-08-05T15:20:15.663Z,38.80
2022-08-05T15:22:54.129Z,38.70
2022-08-05T15:25:52.906Z,38.20
2022-08-05T15:28:14.280Z,37.70
2022-08-05T15:30:43.434Z,37.40
2022-08-05T15:33:11.829Z,37.20
2022-08-05T15:35:44.961Z,37.20
2022-08-05T15:38:33.896Z,37.10
2022-08-05T15:41:21.853Z,36.70
2022-08-05T15:43:50.668Z,36.30
2022-08-05T15:46:20.499Z,36.00
2022-08-05T15:48:54.749Z,35.80
2022-08-05T15:52:04.463Z,35.60
2022-08-05T15:54:20.180Z,35.30
2022-08-05T15:57:02.585Z,35.00
2022-08-05T15:59:30.393Z,35.00
2022-08-05T16:01:59.446Z,35.20
2022-08-05T16:04:28.894Z,35.20
2022-08-05T16:06:56.934Z,35.30
2022-08-05T16:09:27.361Z,35.40
2022-08-05T16:11:56.429Z,35.40
2022-08-05T16:14:24.532Z,35.30
2022-08-05T16:16:52.368Z,35.00
2022-08-05T16:20:02.793Z,34.70
2022-08-05T16:22:10.822Z,34.40
2022-08-05T16:24:51.695Z,34.00
2022-08-05T16:27:32.284Z,33.70
2022-08-05T16:30:25.908Z,33.50
2022-08-05T16:32:55.634Z,33.20
2022-08-05T16:35:28.002Z,33.10
2022-08-05T16:38:02.248Z,32.90
2022-08-05T16:40:47.759Z,32.80
2022-08-05T16:43:23.456Z,32.60
2022-08-05T16:46:07.730Z,32.40
2022-08-05T16:48:40.582Z,32.30
2022-08-05T16:51:10.347Z,32.10
2022-08-05T16:54:06.167Z,32.00
2022-08-05T16:56:30.176Z,31.90
2022-08-05T16:58:58.239Z,31.80
2022-08-05T17:01:26.804Z,31.70
2022-08-05T17:03:54.721Z,31.60
2022-08-05T17:06:24.619Z,31.60
2022-08-05T17:08:54.419Z,31.40
2022-08-05T17:11:25.175Z,31.40
2022-08-05T17:14:05.486Z,31.30
2022-08-05T17:16:36.593Z,31.20
2022-08-05T17:19:07.759Z,31.10
2022-08-05T17:21:39.601Z,31.00
2022-08-05T17:24:19.834Z,31.00
2022-08-05T17:26:57.608Z,30.90
2022-08-05T17:29:33.059Z,30.80
2022-08-05T17:32:01.993Z,30.80
2022-08-05T17:34:32.254Z,30.70
2022-08-05T17:37:04.632Z,30.70
2022-08-05T17:39:55.114Z,30.60
2022-08-05T17:42:30.183Z,30.60
2022-08-05T17:45:09.878Z,30.50
2022-08-05T17:47:52.944Z,30.50
2022-08-05T17:50:27.631Z,30.40
2022-08-05T17:52:58.861Z,30.40
2022-08-05T17:55:37.295Z,30.30
2022-08-05T17:58:09.418Z,30.20
2022-08-05T18:00:44.423Z,30.20
2022-08-05T18:03:28.037Z,30.10
2022-08-05T18:06:04.896Z,30.10
2022-08-05T18:08:33.757Z,30.10
2022-08-05T18:11:03.184Z,30.00
2022-08-05T18:13:36.858Z,30.00
2022-08-05T18:16:14.290Z,29.90
2022-08-05T18:18:48.054Z,29.80
2022-08-05T18:21:19.917Z,29.80
2022-08-05T18:23:49.344Z,29.80
2022-08-05T18:26:21.981Z,29.70
2022-08-05T18:28:57.497Z,29.70
2022-08-05T18:31:32.957Z,29.60
2022-08-05T18:34:01.918Z,29.60
2022-08-05T18:36:29.945Z,29.50
2022-08-05T18:38:58.039Z,29.50
2022-08-05T18:41:59.612Z,29.50
2022-08-05T18:44:14.902Z,29.50
2022-08-05T18:47:03.726Z,29.40
2022-08-05T18:49:58.376Z,29.40
2022-08-05T18:52:35.645Z,29.40
2022-08-05T18:55:10.315Z,29.30
2022-08-05T18:57:50.333Z,29.30
2022-08-05T19:00:29.207Z,29.20
2022-08-05T19:03:03.810Z,29.20
2022-08-05T19:06:12.135Z,29.10
2022-08-05T19:08:21.861Z,29.20
2022-08-05T19:10:59.351Z,29.20
2022-08-05T19:13:27.240Z,29.10
2022-08-05T19:16:03.617Z,29.10
2022-08-05T19:18:33.246Z,29.10
2022-08-05T19:21:01.473Z,29.10
2022-08-05T19:24:05.142Z,29.00
2022-08-05T19:26:19.563Z,29.00
2022-08-05T19:28:47.408Z,29.00
2022-08-05T19:31:19.499Z,29.00
2022-08-05T19:33:56.909Z,29.00
2022-08-05T19:36:25.971Z,28.90
2022-08-05T19:39:00.555Z,28.70
2022-08-05T19:42:05.591Z,28.50
2022-08-05T19:44:20.441Z,28.30
2022-08-05T19:46:50.099Z,28.00
2022-08-05T19:49:19.664Z,27.80
2022-08-05T19:52:08.294Z,27.70
2022-08-05T19:54:36.807Z,27.50
2022-08-05T19:57:06.529Z,27.40
2022-08-05T19:59:56.583Z,27.20
2022-08-05T20:02:26.331Z,27.00
2022-08-05T20:04:58.923Z,26.90
2022-08-05T20:07:45.776Z,26.80
2022-08-05T20:10:16.335Z,26.70
2022-08-05T20:12:46.226Z,26.60
2022-08-05T20:15:48.757Z,26.60
2022-08-05T20:18:10.333Z,26.50
2022-08-05T20:20:58.152Z,26.30
2022-08-05T20:23:39.552Z,26.30
2022-08-05T20:26:17.279Z,26.30
2022-08-05T20:28:48.481Z,26.30
2022-08-05T20:31:16.972Z,26.40
2022-08-05T20:33:45.644Z,26.30
2022-08-05T20:36:17.999Z,26.30
2022-08-05T20:38:53.818Z,26.30
2022-08-05T20:41:26.980Z,26.20
2022-08-05T20:43:58.590Z,26.00
2022-08-05T20:46:28.425Z,26.00
2022-08-05T20:48:56.295Z,26.00
2022-08-05T20:51:25.959Z,26.00
2022-08-05T20:53:56.226Z,25.90
2022-08-05T20:56:28.892Z,25.90
2022-08-05T20:58:59.934Z,26.00
2022-08-05T21:01:39.451Z,25.90
2022-08-05T21:04:09.999Z,25.90
2022-08-05T21:06:45.249Z,25.90
2022-08-05T21:09:14.908Z,25.90
2022-08-05T21:12:09.192Z,26.00
2022-08-05T21:14:34.644Z,25.90
2022-08-05T21:17:05.175Z,25.90
2022-08-05T21:19:46.517Z,25.90
2022-08-05T21:22:21.857Z,25.80
2022-08-05T21:24:52.433Z,25.80
2022-08-05T21:27:25.232Z,25.80
2022-08-05T21:29:54.155Z,25.70
2022-08-05T21:32:24.563Z,25.70
2022-08-05T21:35:09.012Z,25.70
2022-08-05T21:37:52.996Z,25.70
2022-08-05T21:40:22.055Z,25.70
2022-08-05T21:42:52.619Z,25.60
2022-08-05T21:45:24.793Z,25.60
2022-08-05T21:47:55.957Z,25.50
2022-08-05T21:50:25.552Z,25.60
2022-08-05T21:52:58.734Z,25.60
2022-08-05T21:56:01.136Z,25.50
2022-08-05T21:58:20.101Z,25.50
2022-08-05T22:00:52.887Z,25.40
2022-08-05T22:03:49.045Z,25.50
2022-08-05T22:06:09.117Z,25.40
2022-08-05T22:08:42.444Z,25.40
2022-08-05T22:11:11.871Z,25.40
2022-08-05T22:14:19.585Z,25.30
2022-08-05T22:16:41.736Z,25.30
2022-08-05T22:20:03.119Z,25.30
2022-08-05T22:22:07.284Z,25.30
2022-08-05T22:24:55.794Z,25.20
2022-08-05T22:28:11.223Z,25.20
2022-08-05T22:30:32.212Z,25.10
2022-08-05T22:33:03.396Z,25.10
2022-08-05T22:35:48.566Z,25.00
2022-08-05T22:38:17.257Z,25.00
2022-08-05T22:40:54.948Z,25.00
2022-08-05T22:43:37.212Z,25.00
2022-08-05T22:46:13.756Z,25.00
2022-08-05T22:48:51.538Z,25.00
2022-08-05T22:51:23.136Z,24.90
2022-08-05T22:54:07.381Z,25.00
2022-08-05T22:56:36.569Z,24.80
2022-08-05T22:59:48.333Z,24.80
2022-08-05T23:02:04.931Z,24.80
2022-08-05T23:04:36.405Z,24.80
2022-08-05T23:07:07.022Z,24.80
2022-08-05T23:09:57.855Z,24.70
2022-08-05T23:12:24.998Z,24.70
2022-08-05T23:14:56.349Z,24.70
2022-08-05T23:17:32.668Z,24.70
2022-08-05T23:20:16.303Z,24.70
2022-08-05T23:22:47.634Z,24.70
2022-08-05T23:25:51.956Z,24.60
2022-08-05T23:28:07.678Z,24.60
2022-08-05T23:30:40.683Z,24.60
2022-08-05T23:33:16.189Z,24.50
2022-08-05T23:35:55.816Z,24.50
2022-08-05T23:38:25.916Z,24.50
2022-08-05T23:40:53.969Z,24.40
2022-08-05T23:43:25.456Z,24.30
2022-08-05T23:46:19.723Z,24.30
2022-08-05T23:49:00.490Z,24.20
2022-08-05T23:51:53.385Z,24.20
2022-08-05T23:54:26.019Z,24.20
2022-08-05T23:56:55.026Z,24.10
2022-08-05T23:59:37.280Z,24.00
